Time;durP1;ratioP1;P1;durP2;ratioP2;P2;SDS_P1;SDS_P2;PMS_P1;PMS_P2;Temp;Humidity;BMP_temperature;BMP_pressure;BME280_temperature;BME280_humidity;BME280_pressure;Samples;Min_cycle;Max_cycle;Signal;HPM_P1;HPM_P2
2021/03/02 00:00:19;;;;;;;59.97;24.48;;;3.80;93.00;;;;;;5072787;28;20119;-55
2021/03/02 00:02:45;;;;;;;65.95;26.73;;;3.80;93.20;;;;;;5072118;28;20051;-55
2021/03/02 00:05:13;;;;;;;59.80;24.67;;;3.70;93.00;;;;;;5068114;28;20048;-56
2021/03/02 00:07:39;;;;;;;60.67;25.98;;;3.70;93.50;;;;;;5071164;28;20033;-59
2021/03/02 00:10:07;;;;;;;63.38;25.20;;;3.90;92.90;;;;;;5071299;28;20074;-56
2021/03/02 00:12:34;;;;;;;57.63;24.60;;;3.80;92.70;;;;;;5071584;28;20115;-56
2021/03/02 00:15:00;;;;;;;58.55;25.40;;;3.80;92.90;;;;;;5088016;28;20074;-55
2021/03/02 00:17:42;;;;;;;66.65;26.10;;;3.80;92.70;;;;;;5072330;28;20409;-58
2021/03/02 00:20:09;;;;;;;61.15;26.67;;;3.80;92.70;;;;;;5071142;28;20048;-54
2021/03/02 00:23:19;;;;;;;63.22;26.92;;;3.80;92.70;;;;;;5073498;28;20024;-53
2021/03/02 00:25:50;;;;;;;65.97;26.23;;;3.70;93.00;;;;;;5072186;28;20044;-52
2021/03/02 00:28:17;;;;;;;68.38;26.58;;;3.70;92.60;;;;;;5072301;28;20036;-55
2021/03/02 00:30:47;;;;;;;57.97;24.17;;;3.70;92.80;;;;;;5072114;28;20183;-54
2021/03/02 00:33:14;;;;;;;65.80;26.35;;;3.70;92.80;;;;;;5076377;28;20516;-56
2021/03/02 00:35:39;;;;;;;69.65;28.75;;;3.70;92.80;;;;;;5076608;28;20044;-54
2021/03/02 00:38:05;;;;;;;58.97;24.73;;;3.70;92.80;;;;;;5071785;28;20408;-55
2021/03/02 00:40:31;;;;;;;58.42;24.65;;;3.70;92.80;;;;;;5071536;28;20048;-54
2021/03/02 00:42:57;;;;;;;65.13;26.40;;;3.70;92.80;;;;;;5064919;28;20113;-55
2021/03/02 00:45:23;;;;;;;59.78;25.63;;;3.70;92.70;;;;;;5070853;28;20493;-53
2021/03/02 00:47:52;;;;;;;67.30;26.38;;;3.70;92.70;;;;;;5071783;28;20538;-56
2021/03/02 00:50:18;;;;;;;67.55;27.33;;;3.70;92.60;;;;;;5061731;28;20048;-56
2021/03/02 00:52:44;;;;;;;59.38;25.45;;;3.60;92.80;;;;;;5069286;28;20040;-56
2021/03/02 00:55:10;;;;;;;65.65;26.67;;;3.70;92.60;;;;;;5072332;28;20047;-55
2021/03/02 00:57:37;;;;;;;63.05;26.42;;;3.70;92.70;;;;;;5072129;28;20032;-56
2021/03/02 01:00:05;;;;;;;70.00;28.10;;;3.60;92.70;;;;;;5072464;28;20052;-58
2021/03/02 01:02:30;;;;;;;68.70;27.25;;;3.60;92.60;;;;;;5070571;28;20039;-55
2021/03/02 01:04:56;;;;;;;69.28;27.33;;;3.50;92.80;;;;;;5071100;28;20416;-55
2021/03/02 01:07:22;;;;;;;70.07;26.73;;;3.60;92.80;;;;;;5064021;28;20076;-55
2021/03/02 01:09:48;;;;;;;64.95;27.83;;;3.60;92.70;;;;;;5071601;28;20493;-55
2021/03/02 01:12:13;;;;;;;66.82;27.58;;;3.50;92.70;;;;;;5062483;28;20408;-60
2021/03/02 01:14:39;;;;;;;65.78;26.75;;;3.50;92.80;;;;;;5067378;28;20040;-55
2021/03/02 01:17:05;;;;;;;72.82;26.95;;;3.50;92.80;;;;;;5071795;28;20048;-54
2021/03/02 01:19:31;;;;;;;67.55;27.40;;;3.50;92.80;;;;;;5069357;28;20037;-56
2021/03/02 01:21:57;;;;;;;68.95;27.73;;;3.50;92.50;;;;;;5077322;28;20128;-55
2021/03/02 01:24:22;;;;;;;59.88;24.38;;;3.50;92.60;;;;;;5073016;28;20049;-57
2021/03/02 01:26:48;;;;;;;68.43;27.45;;;3.50;92.80;;;;;;5076507;28;20059;-55
2021/03/02 01:29:14;;;;;;;69.95;28.02;;;3.50;93.10;;;;;;5077558;28;20051;-58
2021/03/02 01:31:39;;;;;;;61.90;25.83;;;3.40;92.70;;;;;;5077222;28;20044;-53
2021/03/02 01:34:05;;;;;;;71.35;26.98;;;3.40;92.80;;;;;;5070648;28;20044;-55
2021/03/02 01:36:31;;;;;;;59.55;25.55;;;3.40;92.80;;;;;;5070658;28;20449;-55
2021/03/02 01:38:57;;;;;;;64.55;27.17;;;3.40;92.70;;;;;;5070575;28;20051;-54
2021/03/02 01:41:22;;;;;;;69.35;26.65;;;3.40;92.50;;;;;;5070307;28;20087;-55
2021/03/02 01:43:48;;;;;;;66.47;26.65;;;3.30;92.80;;;;;;5065512;28;20076;-59
2021/03/02 01:46:14;;;;;;;64.32;26.15;;;3.30;92.80;;;;;;5071453;28;20427;-55
2021/03/02 01:48:41;;;;;;;65.25;27.15;;;3.40;92.80;;;;;;5070766;28;20123;-55
2021/03/02 01:51:10;;;;;;;62.42;25.23;;;3.30;92.70;;;;;;5071794;28;20140;-57
2021/03/02 01:53:36;;;;;;;67.82;27.45;;;3.30;93.00;;;;;;5069147;28;20092;-55
2021/03/02 01:56:02;;;;;;;67.05;26.55;;;3.30;92.90;;;;;;5069338;28;20115;-55
2021/03/02 01:58:29;;;;;;;67.00;27.05;;;3.30;92.70;;;;;;5068132;28;20036;-56
2021/03/02 02:00:56;;;;;;;56.25;24.75;;;3.40;92.80;;;;;;5071456;28;20505;-56
2021/03/02 02:03:40;;;;;;;68.63;27.00;;;3.30;92.90;;;;;;5072268;28;20093;-53
2021/03/02 02:06:18;;;;;;;67.68;27.83;;;3.20;92.80;;;;;;5071334;28;20076;-57
2021/03/02 02:09:05;;;;;;;69.00;26.90;;;3.30;92.80;;;;;;5072249;28;20063;-55
2021/03/02 02:11:36;;;;;;;59.28;24.70;;;3.30;92.90;;;;;;5070773;28;20120;-52
2021/03/02 02:14:09;;;;;;;65.10;26.25;;;3.20;92.70;;;;;;5061899;28;20040;-54
2021/03/02 02:16:38;;;;;;;65.78;25.83;;;3.20;92.70;;;;;;5070709;28;20040;-54
2021/03/02 02:19:04;;;;;;;62.60;24.75;;;3.30;92.90;;;;;;5072578;28;20032;-57
2021/03/02 02:22:12;;;;;;;60.97;25.42;;;3.20;92.70;;;;;;5070015;28;20633;-52
2021/03/02 02:25:23;;;;;;;65.85;25.92;;;3.20;92.70;;;;;;5060820;28;20044;-51
2021/03/02 02:27:54;;;;;;;65.38;26.63;;;3.20;92.80;;;;;;5040502;28;20075;-54
2021/03/02 02:30:20;;;;;;;57.75;24.45;;;3.20;92.60;;;;;;5069389;28;20043;-57
2021/03/02 02:32:48;;;;;;;64.03;24.67;;;3.10;92.80;;;;;;5067808;28;20254;-53
2021/03/02 02:35:17;;;;;;;65.40;25.77;;;3.10;92.80;;;;;;5069256;28;20090;-53
2021/03/02 02:37:45;;;;;;;62.88;25.73;;;3.10;93.00;;;;;;5071806;28;20036;-54
2021/03/02 02:40:14;;;;;;;57.85;23.05;;;3.10;93.00;;;;;;5072273;28;20076;-56
2021/03/02 02:42:42;;;;;;;56.60;23.52;;;3.10;92.90;;;;;;5069616;28;20483;-62
2021/03/02 02:45:09;;;;;;;69.20;26.38;;;3.10;92.80;;;;;;5061976;28;20041;-54
2021/03/02 02:47:35;;;;;;;50.50;22.25;;;3.10;92.50;;;;;;5068286;28;20197;-51
2021/03/02 02:50:03;;;;;;;60.92;24.05;;;3.10;92.70;;;;;;5070603;28;20056;-52
2021/03/02 02:52:29;;;;;;;64.10;24.27;;;3.10;92.70;;;;;;5069410;28;20037;-55
2021/03/02 02:54:56;;;;;;;60.28;24.73;;;3.10;92.70;;;;;;5071234;28;20128;-59
2021/03/02 02:57:24;;;;;;;49.60;19.67;;;3.10;92.50;;;;;;5066384;28;20107;-58
2021/03/02 02:59:51;;;;;;;60.83;24.70;;;3.10;92.50;;;;;;5077781;28;20123;-58
2021/03/02 03:02:20;;;;;;;59.38;23.58;;;3.10;92.40;;;;;;5070639;28;20040;-59
2021/03/02 03:04:55;;;;;;;59.90;24.48;;;3.10;92.60;;;;;;5063802;28;20048;-58
2021/03/02 03:07:37;;;;;;;54.95;21.60;;;3.10;92.30;;;;;;5078519;28;20086;-58
2021/03/02 03:10:06;;;;;;;51.80;22.98;;;3.00;92.30;;;;;;5071717;28;20045;-59
2021/03/02 03:12:37;;;;;;;56.05;21.95;;;3.00;92.50;;;;;;5073044;28;20071;-57
2021/03/02 03:15:06;;;;;;;56.35;22.65;;;3.00;92.60;;;;;;5084446;28;20224;-58
2021/03/02 03:17:35;;;;;;;58.75;24.13;;;2.90;92.60;;;;;;5078350;28;20055;-57
2021/03/02 03:20:04;;;;;;;59.50;24.30;;;2.90;92.80;;;;;;5081553;28;20055;-58
2021/03/02 03:22:31;;;;;;;63.00;25.08;;;2.90;92.70;;;;;;5075270;28;20037;-58
2021/03/02 03:24:58;;;;;;;66.47;26.33;;;2.90;92.80;;;;;;5082880;28;20032;-58
2021/03/02 03:27:26;;;;;;;63.28;25.45;;;2.80;92.90;;;;;;5071813;28;20129;-59
2021/03/02 03:29:52;;;;;;;64.70;26.02;;;2.80;92.90;;;;;;5071249;28;20074;-58
2021/03/02 03:32:18;;;;;;;67.13;26.75;;;2.70;93.00;;;;;;5078071;28;20065;-59
2021/03/02 03:34:45;;;;;;;62.55;25.67;;;2.90;92.90;;;;;;5074960;28;20059;-59
2021/03/02 03:37:10;;;;;;;60.53;25.50;;;2.90;92.80;;;;;;5073517;28;20651;-59
2021/03/02 03:39:36;;;;;;;61.35;25.42;;;2.80;92.80;;;;;;5075528;28;20487;-54
2021/03/02 03:42:03;;;;;;;66.03;26.35;;;2.90;92.80;;;;;;5060083;28;20485;-51
2021/03/02 03:44:28;;;;;;;62.90;25.45;;;2.80;92.90;;;;;;5071771;28;20086;-56
2021/03/02 03:46:54;;;;;;;66.63;27.35;;;2.80;92.80;;;;;;5080607;28;20443;-55
2021/03/02 03:49:20;;;;;;;62.35;24.38;;;2.80;92.60;;;;;;5077428;28;20445;-57
2021/03/02 03:51:46;;;;;;;46.97;18.05;;;2.80;92.60;;;;;;5071044;28;20029;-56
2021/03/02 03:54:14;;;;;;;60.25;25.70;;;2.80;92.80;;;;;;5071185;28;20037;-53
2021/03/02 03:56:42;;;;;;;56.88;23.95;;;2.70;92.60;;;;;;5074666;28;20082;-56
2021/03/02 03:59:11;;;;;;;59.22;23.83;;;2.80;92.70;;;;;;5074371;28;20059;-58
2021/03/02 04:01:37;;;;;;;65.43;23.77;;;2.70;92.70;;;;;;5072619;28;20530;-55
2021/03/02 04:04:03;;;;;;;62.45;23.85;;;2.70;92.80;;;;;;5072318;28;20413;-51
2021/03/02 04:06:31;;;;;;;62.55;25.35;;;2.70;92.70;;;;;;5065957;28;20037;-53
2021/03/02 04:08:57;;;;;;;54.67;21.98;;;2.60;92.60;;;;;;5078491;28;20424;-53
2021/03/02 04:11:25;;;;;;;57.30;24.38;;;2.60;92.80;;;;;;5082042;28;20245;-53
2021/03/02 04:13:51;;;;;;;60.42;24.13;;;2.50;92.80;;;;;;5073203;28;20488;-54
2021/03/02 04:16:16;;;;;;;65.88;25.02;;;2.50;93.10;;;;;;5073365;28;20045;-56
2021/03/02 04:18:42;;;;;;;61.65;25.10;;;2.70;92.70;;;;;;5073059;28;20477;-57
2021/03/02 04:21:08;;;;;;;61.80;25.17;;;2.70;92.60;;;;;;5075898;28;20492;-52
2021/03/02 04:23:33;;;;;;;67.90;25.25;;;2.70;92.60;;;;;;5072273;28;20072;-54
2021/03/02 04:25:59;;;;;;;65.75;25.08;;;2.70;92.60;;;;;;5077504;28;20496;-51
2021/03/02 04:28:25;;;;;;;45.05;17.17;;;2.60;92.90;;;;;;5073285;28;20033;-53
2021/03/02 04:30:51;;;;;;;62.95;21.73;;;2.60;93.00;;;;;;5070325;28;20132;-55
2021/03/02 04:33:17;;;;;;;69.68;24.73;;;2.60;93.00;;;;;;5061740;28;20041;-57
2021/03/02 04:35:43;;;;;;;64.00;23.80;;;2.50;93.10;;;;;;5071177;28;20813;-53
2021/03/02 04:38:10;;;;;;;72.75;25.77;;;2.50;93.40;;;;;;5072950;28;20054;-57
2021/03/02 04:40:37;;;;;;;75.30;24.80;;;2.50;93.30;;;;;;5073744;28;20131;-54
2021/03/02 04:43:03;;;;;;;64.72;23.52;;;2.50;93.60;;;;;;5071164;28;20120;-54
2021/03/02 04:45:29;;;;;;;74.78;25.75;;;2.50;93.60;;;;;;5070574;28;20032;-54
2021/03/02 04:47:54;;;;;;;71.13;25.45;;;2.40;93.40;;;;;;5068241;28;20119;-55
2021/03/02 04:50:21;;;;;;;74.25;25.55;;;2.40;93.70;;;;;;5066159;28;20482;-55
2021/03/02 04:52:46;;;;;;;67.90;24.13;;;2.40;93.90;;;;;;5037327;28;20047;-53
2021/03/02 04:55:12;;;;;;;62.42;24.55;;;2.40;94.00;;;;;;5072555;28;20040;-53
2021/03/02 04:57:38;;;;;;;79.00;27.23;;;2.50;93.80;;;;;;5071983;28;20488;-54
2021/03/02 05:00:07;;;;;;;75.80;25.10;;;2.40;93.80;;;;;;5074131;28;20043;-54
2021/03/02 05:02:32;;;;;;;66.90;24.95;;;2.40;93.80;;;;;;5078513;28;20050;-54
2021/03/02 05:04:58;;;;;;;76.05;26.38;;;2.40;94.00;;;;;;5071186;28;21417;-55
2021/03/02 05:07:24;;;;;;;63.58;24.65;;;2.60;93.60;;;;;;5067089;28;20033;-54
2021/03/02 05:09:50;;;;;;;74.57;24.92;;;2.60;93.60;;;;;;5071327;28;20041;-52
2021/03/02 05:12:16;;;;;;;65.82;25.15;;;2.60;93.70;;;;;;5074725;28;20036;-51
2021/03/02 05:14:41;;;;;;;66.78;23.95;;;2.50;93.90;;;;;;5082284;28;20051;-56
2021/03/02 05:17:07;;;;;;;57.92;22.58;;;2.50;93.90;;;;;;5077601;28;20048;-55
2021/03/02 05:19:33;;;;;;;68.50;25.25;;;2.50;94.00;;;;;;5077607;28;20050;-54
2021/03/02 05:21:59;;;;;;;58.88;22.40;;;2.50;93.80;;;;;;5074839;28;20063;-52
2021/03/02 05:24:25;;;;;;;78.63;27.00;;;2.60;93.80;;;;;;5071550;28;20101;-55
2021/03/02 05:26:51;;;;;;;76.20;25.88;;;2.50;93.70;;;;;;5036747;28;20050;-53
2021/03/02 05:29:17;;;;;;;65.80;25.00;;;2.60;93.90;;;;;;5069899;28;20048;-57
2021/03/02 05:31:43;;;;;;;74.97;26.60;;;2.50;94.00;;;;;;5076308;28;20040;-56
2021/03/02 05:34:10;;;;;;;73.80;25.48;;;2.50;94.00;;;;;;5070065;28;20072;-55
2021/03/02 05:36:36;;;;;;;86.38;27.30;;;2.50;93.90;;;;;;5074568;28;20036;-55
2021/03/02 05:39:02;;;;;;;70.00;26.05;;;2.60;93.80;;;;;;5066056;28;20048;-52
2021/03/02 05:41:28;;;;;;;65.55;23.85;;;2.50;93.90;;;;;;5063229;28;20495;-53
2021/03/02 05:43:54;;;;;;;70.10;25.10;;;2.50;94.10;;;;;;5065465;28;20070;-57
2021/03/02 05:46:23;;;;;;;72.82;25.60;;;2.60;93.70;;;;;;5072054;28;20044;-53
2021/03/02 05:48:49;;;;;;;62.95;23.10;;;2.60;93.70;;;;;;5070646;28;20075;-53
2021/03/02 05:51:17;;;;;;;69.03;24.73;;;2.50;94.00;;;;;;5070199;28;20045;-52
2021/03/02 05:53:43;;;;;;;73.18;26.13;;;2.50;94.10;;;;;;5061757;28;20193;-51
2021/03/02 05:56:09;;;;;;;72.95;25.27;;;2.50;94.10;;;;;;5072323;28;20128;-52
2021/03/02 05:58:35;;;;;;;66.57;24.80;;;2.50;94.00;;;;;;5081013;28;20450;-56
2021/03/02 06:01:02;;;;;;;77.78;26.33;;;2.50;93.80;;;;;;5085342;28;20048;-55
2021/03/02 06:03:28;;;;;;;89.10;26.48;;;2.60;93.80;;;;;;5067229;28;20149;-55
2021/03/02 06:05:57;;;;;;;71.60;25.20;;;2.50;94.00;;;;;;5075122;28;20533;-54
2021/03/02 06:08:22;;;;;;;86.00;26.60;;;2.50;94.10;;;;;;5072904;28;20056;-57
2021/03/02 06:10:48;;;;;;;89.25;25.95;;;2.50;94.10;;;;;;5077427;28;20045;-52
2021/03/02 06:13:25;;;;;;;76.68;26.38;;;2.60;93.90;;;;;;5081254;28;20056;-54
2021/03/02 06:15:54;;;;;;;67.72;25.98;;;2.50;93.80;;;;;;5071203;28;20043;-56
2021/03/02 06:18:20;;;;;;;82.68;26.05;;;2.50;94.10;;;;;;5067259;28;20045;-54
2021/03/02 06:20:47;;;;;;;76.03;27.35;;;2.40;94.20;;;;;;5079766;28;20043;-56
2021/03/02 06:23:23;;;;;;;74.38;26.27;;;2.50;94.10;;;;;;5079864;28;20543;-57
2021/03/02 06:25:51;;;;;;;97.05;26.63;;;2.50;94.00;;;;;;5072931;28;20048;-54
2021/03/02 06:28:40;;;;;;;77.50;26.90;;;2.60;93.90;;;;;;5066162;28;20048;-57
2021/03/02 06:31:07;;;;;;;75.18;23.42;;;2.50;94.00;;;;;;5067964;28;20196;-54
2021/03/02 06:33:34;;;;;;;68.13;26.38;;;2.50;93.90;;;;;;5067407;28;20390;-57
2021/03/02 06:36:00;;;;;;;77.10;26.42;;;2.50;94.00;;;;;;5076032;28;20036;-49
2021/03/02 06:38:29;;;;;;;73.50;25.30;;;2.50;93.90;;;;;;5066623;28;20056;-54
2021/03/02 06:40:55;;;;;;;76.10;23.40;;;2.50;93.90;;;;;;5056943;28;20045;-58
2021/03/02 06:43:37;;;;;;;67.32;24.02;;;2.50;94.10;;;;;;5056174;28;20107;-53
2021/03/02 06:46:08;;;;;;;77.32;25.60;;;2.50;94.00;;;;;;5065244;28;20047;-56
2021/03/02 06:48:50;;;;;;;68.03;23.75;;;2.50;94.20;;;;;;5070877;28;20040;-53
2021/03/02 06:51:26;;;;;;;77.43;26.35;;;2.60;93.90;;;;;;5074299;28;20040;-53
2021/03/02 06:54:15;;;;;;;92.00;28.52;;;2.50;94.10;;;;;;5072633;28;20060;-52
2021/03/02 06:56:41;;;;;;;101.40;27.25;;;2.50;94.30;;;;;;5077756;28;20100;-54
2021/03/02 06:59:19;;;;;;;74.43;25.90;;;2.50;94.10;;;;;;5076992;28;20044;-54
2021/03/02 07:01:48;;;;;;;91.85;28.08;;;2.50;94.40;;;;;;5074387;28;20417;-54
2021/03/02 07:04:15;;;;;;;103.53;27.77;;;2.50;94.20;;;;;;5071114;28;20044;-53
2021/03/02 07:06:42;;;;;;;80.28;25.05;;;2.50;94.40;;;;;;5065737;28;20102;-52
2021/03/02 07:09:09;;;;;;;99.18;28.80;;;2.60;94.30;;;;;;5066448;28;20045;-54
2021/03/02 07:11:40;;;;;;;76.15;23.75;;;2.60;94.10;;;;;;5072738;28;20036;-56
2021/03/02 07:14:10;;;;;;;88.55;26.70;;;2.60;94.30;;;;;;5060233;28;20080;-54
2021/03/02 07:16:40;;;;;;;93.40;26.27;;;2.70;94.00;;;;;;5058632;28;20063;-52
2021/03/02 07:19:06;;;;;;;76.50;27.92;;;2.70;94.10;;;;;;5059356;28;20036;-52
2021/03/02 07:21:39;;;;;;;87.95;27.90;;;2.60;94.20;;;;;;5060454;28;20029;-50
2021/03/02 07:24:09;;;;;;;81.20;28.02;;;2.60;94.20;;;;;;5060168;28;20128;-54
2021/03/02 07:26:36;;;;;;;91.47;28.98;;;2.60;94.30;;;;;;5062048;28;20120;-55
2021/03/02 07:29:03;;;;;;;95.57;27.58;;;2.80;94.40;;;;;;5062790;28;20037;-53
2021/03/02 07:31:36;;;;;;;79.60;27.05;;;2.70;94.30;;;;;;5058825;28;20048;-53
2021/03/02 07:34:04;;;;;;;89.03;28.95;;;2.80;94.00;;;;;;5059723;28;20045;-54
2021/03/02 07:36:41;;;;;;;77.68;23.35;;;2.70;93.90;;;;;;5062179;28;20041;-53
2021/03/02 07:39:18;;;;;;;68.95;25.38;;;2.80;94.10;;;;;;5059302;28;20040;-57
2021/03/02 07:41:45;;;;;;;78.03;28.33;;;2.80;94.00;;;;;;5062263;28;20159;-53
2021/03/02 07:44:12;;;;;;;89.35;30.13;;;2.80;94.10;;;;;;5061747;28;20763;-56
2021/03/02 07:46:40;;;;;;;78.57;27.23;;;2.80;94.10;;;;;;5060468;28;20437;-54
2021/03/02 07:49:36;;;;;;;80.50;29.27;;;2.90;94.20;;;;;;5059969;28;20048;-56
2021/03/02 07:52:01;;;;;;;84.40;29.10;;;2.90;94.00;;;;;;5067706;28;20055;-57
2021/03/02 07:54:33;;;;;;;75.65;29.13;;;2.90;94.10;;;;;;5063631;28;20044;-57
2021/03/02 07:57:18;;;;;;;82.43;28.80;;;3.00;94.10;;;;;;5062782;28;20036;-56
2021/03/02 07:59:45;;;;;;;84.30;29.73;;;3.00;94.20;;;;;;5060385;28;20040;-57
2021/03/02 08:02:18;;;;;;;105.93;31.75;;;3.00;94.30;;;;;;5065633;28;20400;-54
2021/03/02 08:04:55;;;;;;;92.47;28.45;;;3.00;94.20;;;;;;5062101;28;20120;-57
2021/03/02 08:07:23;;;;;;;83.28;25.45;;;3.00;94.30;;;;;;5060347;28;20033;-57
2021/03/02 08:09:50;;;;;;;76.65;28.40;;;3.10;93.90;;;;;;5065445;28;20040;-57
2021/03/02 08:12:31;;;;;;;71.15;25.58;;;3.10;94.00;;;;;;5061851;28;20056;-57
2021/03/02 08:14:59;;;;;;;78.85;27.75;;;3.20;93.70;;;;;;5061212;28;20056;-57
2021/03/02 08:17:27;;;;;;;72.90;27.30;;;3.10;93.90;;;;;;5057868;28;20051;-57
2021/03/02 08:20:05;;;;;;;84.72;29.67;;;3.20;93.60;;;;;;5070323;28;20040;-57
2021/03/02 08:22:33;;;;;;;61.05;24.83;;;3.10;93.70;;;;;;5069159;28;20081;-58
2021/03/02 08:25:09;;;;;;;71.00;28.67;;;3.20;93.80;;;;;;5070101;28;20047;-57
2021/03/02 08:27:48;;;;;;;70.63;27.80;;;3.20;93.60;;;;;;5067475;28;20040;-57
2021/03/02 08:30:19;;;;;;;60.13;21.00;;;3.20;93.80;;;;;;5069636;28;20063;-55
2021/03/02 08:32:45;;;;;;;65.38;25.77;;;3.30;93.70;;;;;;5071050;28;20040;-54
2021/03/02 08:35:17;;;;;;;59.17;24.35;;;3.20;93.40;;;;;;5070677;28;20038;-53
2021/03/02 08:37:47;;;;;;;61.88;24.33;;;3.20;93.60;;;;;;5062867;28;20043;-53
2021/03/02 08:40:16;;;;;;;77.43;27.15;;;3.20;93.60;;;;;;5043133;28;20037;-58
2021/03/02 08:43:18;;;;;;;56.45;24.20;;;3.20;93.90;;;;;;5062231;28;20044;-57
2021/03/02 08:45:52;;;;;;;62.45;25.73;;;3.30;93.90;;;;;;4996307;28;20046;-53
2021/03/02 08:48:25;;;;;;;59.25;25.95;;;3.40;93.70;;;;;;5059452;28;20352;-53
2021/03/02 08:51:00;;;;;;;60.45;24.55;;;3.30;93.70;;;;;;5060888;28;20036;-53
2021/03/02 08:53:38;;;;;;;62.25;26.58;;;3.40;93.80;;;;;;5059408;28;20037;-57
2021/03/02 08:56:14;;;;;;;67.75;26.58;;;3.50;93.60;;;;;;5065134;28;20047;-57
2021/03/02 08:58:44;;;;;;;50.55;21.50;;;3.60;93.80;;;;;;5061763;28;20036;-55
2021/03/02 09:01:12;;;;;;;58.42;26.77;;;3.70;93.30;;;;;;5067487;28;20044;-55
2021/03/02 09:03:41;;;;;;;65.13;27.40;;;3.60;93.20;;;;;;5072307;28;20079;-54
2021/03/02 09:06:07;;;;;;;62.17;26.33;;;3.70;93.40;;;;;;5087331;28;20193;-57
2021/03/02 09:09:00;;;;;;;57.95;26.23;;;3.70;93.60;;;;;;5066482;28;20487;-53
2021/03/02 09:11:28;;;;;;;62.28;25.88;;;3.70;93.30;;;;;;5073776;28;20036;-55
2021/03/02 09:13:55;;;;;;;60.15;26.02;;;3.80;93.50;;;;;;5069227;28;20532;-53
2021/03/02 09:16:23;;;;;;;58.80;27.90;;;3.80;93.40;;;;;;5066983;28;20052;-55
2021/03/02 09:19:02;;;;;;;60.70;25.92;;;3.90;93.10;;;;;;5068739;28;20132;-54
2021/03/02 09:21:28;;;;;;;57.65;26.55;;;3.90;93.10;;;;;;5065295;28;20045;-55
2021/03/02 09:23:54;;;;;;;57.28;26.20;;;3.90;93.20;;;;;;5067695;28;20048;-55
2021/03/02 09:26:21;;;;;;;60.17;25.30;;;4.00;92.80;;;;;;5064363;28;20405;-53
2021/03/02 09:28:55;;;;;;;55.47;25.60;;;4.10;92.90;;;;;;5059563;28;20507;-53
2021/03/02 09:31:21;;;;;;;52.05;24.38;;;4.10;92.90;;;;;;5072797;28;20040;-53
2021/03/02 09:33:48;;;;;;;53.22;24.85;;;4.10;93.10;;;;;;5067961;28;20119;-55
2021/03/02 09:36:15;;;;;;;61.78;27.80;;;4.10;92.90;;;;;;5069918;28;20041;-53
2021/03/02 09:38:40;;;;;;;64.75;28.50;;;4.20;93.00;;;;;;5066484;28;20036;-53
2021/03/02 09:41:06;;;;;;;60.50;26.48;;;4.20;93.10;;;;;;5067203;28;20064;-55
2021/03/02 09:43:39;;;;;;;58.67;25.85;;;4.30;93.00;;;;;;5068929;28;20139;-56
2021/03/02 09:46:06;;;;;;;59.92;26.88;;;4.40;92.50;;;;;;5067667;28;20488;-59
2021/03/02 09:48:48;;;;;;;64.15;28.13;;;4.50;92.20;;;;;;5068185;28;20129;-53
2021/03/02 09:51:29;;;;;;;60.15;27.48;;;4.50;92.70;;;;;;5066373;28;20652;-52
2021/03/02 09:54:13;;;;;;;56.70;26.33;;;4.60;93.00;;;;;;5065097;28;20040;-56
2021/03/02 09:56:39;;;;;;;53.33;24.25;;;4.70;92.20;;;;;;5068596;28;20063;-55
2021/03/02 09:59:06;;;;;;;57.45;24.95;;;4.70;92.40;;;;;;5067955;28;20052;-53
2021/03/02 10:01:33;;;;;;;50.63;22.48;;;4.80;92.40;;;;;;5069210;28;20036;-55
2021/03/02 10:04:07;;;;;;;59.78;27.20;;;4.90;92.40;;;;;;5068856;28;20044;-53
2021/03/02 10:06:33;;;;;;;54.35;26.38;;;5.10;92.30;;;;;;5071180;28;20044;-56
2021/03/02 10:08:59;;;;;;;52.50;24.70;;;5.20;92.50;;;;;;5066536;28;20048;-56
2021/03/02 10:11:27;;;;;;;51.55;24.75;;;5.30;92.30;;;;;;5053293;28;20525;-56
2021/03/02 10:13:53;;;;;;;48.15;23.02;;;5.40;92.40;;;;;;5068453;28;20048;-54
2021/03/02 10:16:30;;;;;;;47.08;23.00;;;5.40;91.70;;;;;;5068281;28;20097;-55
2021/03/02 10:18:59;;;;;;;45.72;22.30;;;5.40;91.40;;;;;;5070191;28;20055;-53
2021/03/02 10:21:45;;;;;;;43.22;22.40;;;5.40;91.30;;;;;;5058921;28;20444;-57
2021/03/02 10:24:20;;;;;;;46.88;23.20;;;5.50;91.10;;;;;;5056861;28;20036;-54
2021/03/02 10:26:46;;;;;;;40.92;20.08;;;5.40;91.50;;;;;;5067678;28;20166;-54
2021/03/02 10:29:12;;;;;;;46.88;23.77;;;5.60;91.50;;;;;;5064920;28;20047;-54
2021/03/02 10:31:38;;;;;;;44.85;22.77;;;5.70;91.40;;;;;;5069713;28;20047;-54
2021/03/02 10:34:05;;;;;;;49.83;23.65;;;5.70;91.30;;;;;;5072867;28;20046;-55
2021/03/02 10:36:33;;;;;;;42.63;22.27;;;5.90;91.20;;;;;;5066458;28;20420;-55
2021/03/02 10:39:04;;;;;;;48.58;23.63;;;5.90;91.50;;;;;;5072707;28;20089;-56
2021/03/02 10:41:30;;;;;;;43.00;22.48;;;6.00;91.40;;;;;;5074578;28;20040;-53
2021/03/02 10:43:56;;;;;;;46.00;23.13;;;6.10;91.20;;;;;;5069470;28;20043;-57
2021/03/02 10:46:25;;;;;;;46.30;23.63;;;6.10;90.70;;;;;;5069371;28;20599;-53
2021/03/02 10:48:52;;;;;;;44.67;22.65;;;6.20;90.80;;;;;;5071054;28;20485;-56
2021/03/02 10:51:18;;;;;;;45.28;24.15;;;6.30;90.80;;;;;;5066748;28;20663;-54
2021/03/02 10:53:45;;;;;;;39.72;20.15;;;6.30;90.90;;;;;;5067493;28;20093;-54
2021/03/02 10:56:12;;;;;;;44.70;23.15;;;6.40;89.70;;;;;;5069892;28;20033;-56
2021/03/02 10:58:38;;;;;;;39.85;22.55;;;6.50;89.80;;;;;;5051805;28;20496;-54
2021/03/02 11:01:04;;;;;;;42.50;21.60;;;6.50;89.70;;;;;;5065779;28;20099;-56
2021/03/02 11:03:30;;;;;;;41.40;22.30;;;6.60;88.70;;;;;;5064215;28;20044;-56
2021/03/02 11:05:56;;;;;;;38.92;21.67;;;6.60;89.70;;;;;;5068449;28;20037;-53
2021/03/02 11:08:22;;;;;;;41.67;22.95;;;6.70;88.90;;;;;;5063140;28;20098;-54
2021/03/02 11:10:49;;;;;;;38.97;20.85;;;6.80;89.30;;;;;;5067263;28;20562;-54
2021/03/02 11:13:15;;;;;;;40.25;20.83;;;6.90;87.30;;;;;;5064334;28;20524;-54
2021/03/02 11:15:41;;;;;;;40.08;22.02;;;7.00;87.90;;;;;;5050857;28;20489;-55
2021/03/02 11:18:08;;;;;;;36.45;21.30;;;7.00;88.40;;;;;;5072656;28;20599;-57
2021/03/02 11:20:35;;;;;;;35.17;19.02;;;7.10;88.30;;;;;;5071480;28;20562;-57
2021/03/02 11:23:01;;;;;;;36.75;19.35;;;7.30;86.40;;;;;;5068824;28;20076;-55
2021/03/02 11:25:28;;;;;;;35.10;18.55;;;7.40;86.40;;;;;;5075875;28;20126;-55
2021/03/02 11:27:54;;;;;;;35.63;19.73;;;7.50;85.70;;;;;;5070813;28;20501;-56
2021/03/02 11:30:20;;;;;;;37.15;21.10;;;7.50;85.80;;;;;;5080168;28;20405;-57
2021/03/02 11:32:46;;;;;;;35.15;20.30;;;7.50;86.60;;;;;;5060920;28;20041;-54
2021/03/02 11:35:15;;;;;;;37.40;20.30;;;7.60;86.10;;;;;;5073384;28;20036;-58
2021/03/02 11:37:41;;;;;;;33.40;19.20;;;7.70;86.30;;;;;;5066339;28;20040;-58
2021/03/02 11:40:10;;;;;;;38.17;21.35;;;7.80;85.00;;;;;;5070231;28;20090;-57
2021/03/02 11:42:37;;;;;;;37.08;20.40;;;7.80;86.10;;;;;;5076271;28;20064;-54
2021/03/02 11:45:05;;;;;;;37.72;19.10;;;7.90;85.90;;;;;;5071107;28;20043;-54
2021/03/02 11:47:32;;;;;;;32.78;20.13;;;8.00;85.40;;;;;;5069069;28;20468;-56
2021/03/02 11:49:57;;;;;;;33.58;19.00;;;8.10;85.10;;;;;;5063655;28;20966;-53
2021/03/02 11:52:24;;;;;;;37.50;20.60;;;8.10;85.30;;;;;;5064334;28;20041;-57
2021/03/02 11:54:50;;;;;;;35.15;17.85;;;8.30;84.80;;;;;;5062851;28;20068;-56
2021/03/02 11:57:16;;;;;;;34.40;20.23;;;8.40;83.50;;;;;;5062082;28;20464;-55
2021/03/02 11:59:43;;;;;;;34.92;20.65;;;8.40;84.20;;;;;;5063240;28;20045;-53
2021/03/02 12:02:14;;;;;;;35.47;21.17;;;8.50;84.70;;;;;;5067281;28;20044;-58
2021/03/02 12:04:41;;;;;;;36.28;20.05;;;8.60;83.10;;;;;;5062973;28;20113;-54
2021/03/02 12:07:08;;;;;;;35.30;20.83;;;8.60;83.70;;;;;;5063536;28;20392;-57
2021/03/02 12:09:34;;;;;;;38.97;22.40;;;8.70;83.70;;;;;;5061988;28;20036;-56
2021/03/02 12:12:01;;;;;;;33.80;19.73;;;8.90;84.10;;;;;;5068319;28;20110;-55
2021/03/02 12:14:26;;;;;;;34.65;19.95;;;9.00;82.70;;;;;;5066675;28;20041;-54
2021/03/02 12:16:52;;;;;;;34.75;20.58;;;9.00;83.00;;;;;;5060595;28;20405;-56
2021/03/02 12:19:18;;;;;;;34.25;18.90;;;9.10;83.20;;;;;;5058458;28;20040;-57
2021/03/02 12:21:44;;;;;;;34.20;20.20;;;9.30;81.90;;;;;;5066106;28;20053;-57
2021/03/02 12:24:09;;;;;;;33.35;19.98;;;9.30;81.70;;;;;;5066509;28;20040;-54
2021/03/02 12:26:35;;;;;;;33.63;20.45;;;9.40;81.90;;;;;;5066539;28;20040;-57
2021/03/02 12:29:01;;;;;;;33.72;20.10;;;9.50;82.40;;;;;;5067352;28;20036;-57
2021/03/02 12:31:27;;;;;;;38.15;20.60;;;9.60;81.30;;;;;;5071980;28;20045;-57
2021/03/02 12:33:53;;;;;;;33.85;19.77;;;9.50;81.60;;;;;;5071085;28;20055;-54
2021/03/02 12:36:19;;;;;;;33.53;19.52;;;9.60;82.10;;;;;;5061411;28;20040;-55
2021/03/02 12:38:45;;;;;;;33.58;19.60;;;9.70;80.00;;;;;;5070673;28;20109;-54
2021/03/02 12:41:11;;;;;;;33.15;18.85;;;9.80;81.10;;;;;;5072048;28;20472;-54
2021/03/02 12:43:36;;;;;;;34.92;20.52;;;9.80;81.10;;;;;;5066171;28;20044;-56